Dutchess County Airport
KPOU : now visible

Airfield :











YOU CAN JOIN US ON...

 
LOGIN :

Register | Disclaimer

   EN    FR    IT 

 









Legend :    VFR   Marginal VFR   IFR   Intensive IFR   Very Intensive IFR
Visi :
Ceiling :
>= 8 km
>= 3000ft
5 to 8 km
1000 to 3000 ft
1500m to 5 km
500 to 1000 ft
800 to 1500m
200 to 500 ft
< 800m
< 200 ft
Symbols :   Thunderstorms  Fog  Heavy snow  Heavy precipitations  Wind > 20 kt






- Airport Elevation : 165 ft
- IATA code : POU


KPOU - Dutchess County

CURRENT METAR :
  • 161853Z 23005KT 10SM BKN070 OVC100 06/M06 A3007 RMK AO2 SLP180 T00561061

EXPIRED METARs :
  • 161753Z 24009KT 10SM FEW050 OVC070 04/M06 A3008 RMK AO2 SLP186 T00441061 10044 21017 58024
  • 161653Z VRB05KT 10SM FEW085 03/M07 A3011 RMK AO2 SLP195 T00331067

TAF KPOU
Valid from the 16 at 18:00 until the 17 at 18:00 UTC


161721Z 1618/1718 VRB05KT P6SM SCT040 BKN100
FM170900 30004KT P6SM SCT040 SCT250



MET'MAP, your aeronautical weather chart ! - Copyright ORBIFLY December 2007 - Disclaimer

ORBIFLY MET'MAP TEAM :

Programming & Development : Alexandra Zaïnal
Concept & original design : Baudouin d'Aumeries
Assistance for programming : Marc-Olivier Méhu
Technical & hardware support : Manuel Goepfert

Contact : metmap@orbifly.com




SOURCES & CREDITS :

   NOAA       Earth
Advisory